No particular awareness of the weather is required.    There are no Weather-warnings


Meteo18 Weather Cam more information Meteo18 Weather Cam


Thunder radar more information blitzortung!


Rain radar more information rain snow radar


Visit our other weather sites:

Template documentation
and downloads

And another site



Weather Underground History page Text

Daily Summary for November 28, 2017 Units:  Both    English   Metric
« Previous Day
Next Day »
Daily Weekly Monthly Yearly Custom
  High: Low: Average:
Temperature: TemperatureC °F /  -17.8 °C 4.3 °F /  -15.4 °C 5.5 °F /  -14.7 °C
Dew Point: DewpointC °F /  -17.8 °C 3.4 °F /  -15.9 °C 4.3 °F /  -15.4 °C
Humidity: Humidity % 80 % 91 %
Wind Speed: WindSpeedKMH mph /  0 km/h - 8.4 mph /  13.5 km/h
Wind Gust: WindSpeedGustKMH mph /  0 km/h - -
Wind:- - WSW
Pressure: PressurehPa in /  0 hPa 1008.7 in /  34154.6 hPa -
Precipitation: 9.1 in /  231.14 mm    
Historical Graphs
 
 
Tabular Data for November 28, 2017
Time Temperature Dew Point Pressure Wind Wind Speed Wind Gust Humidity Rainfall Rate (Hourly)
TemperatureC °F /  -17.8 °C DewpointC °F /  -17.8 °C PressurehPa in /  0 hPa Calm     Humidity % HourlyPrecipMM in /  0 mm
00:02 6.6 °F /  -14.1 °C 3.7 °F /  -15.7 °C 1018.2 in /  34476.3 hPa SW 11.3 mph /  18.2 km/h 25.7 mph /  41.4 km/h 82 % 0.0 in /  0 mm
00:12 6.6 °F /  -14.1 °C 3.7 °F /  -15.7 °C 1018.2 in /  34476.3 hPa SW 16.1 mph /  25.9 km/h 27.4 mph /  44.1 km/h 82 % 0.0 in /  0 mm
00:17 6.6 °F /  -14.1 °C 3.7 °F /  -15.7 °C 1018.2 in /  34476.3 hPa WSW 14.5 mph /  23.3 km/h 29.0 mph /  46.7 km/h 82 % 0.0 in /  0 mm
00:22 6.6 °F /  -14.1 °C 3.7 °F /  -15.7 °C 1017.8 in /  34462.7 hPa SW 27.4 mph /  44.1 km/h 29.0 mph /  46.7 km/h 82 % 0.0 in /  0 mm
00:27 6.7 °F /  -14.1 °C 3.8 °F /  -15.7 °C 1017.8 in /  34462.7 hPa SW 9.7 mph /  15.6 km/h 29.0 mph /  46.7 km/h 82 % 0.0 in /  0 mm
00:32 6.7 °F /  -14.1 °C 3.8 °F /  -15.7 °C 1017.8 in /  34462.7 hPa WSW 20.9 mph /  33.6 km/h 29.0 mph /  46.7 km/h 82 % 0.0 in /  0 mm
00:37 6.7 °F /  -14.1 °C 3.8 °F /  -15.7 °C 1017.8 in /  34462.7 hPa West 9.7 mph /  15.6 km/h 29.0 mph /  46.7 km/h 82 % 0.0 in /  0 mm
00:42 6.7 °F /  -14.1 °C 3.8 °F /  -15.7 °C 1017.8 in /  34462.7 hPa SW 11.3 mph /  18.2 km/h 30.6 mph /  49.2 km/h 82 % 0.0 in /  0 mm
00:52 6.7 °F /  -14.1 °C 3.8 °F /  -15.7 °C 1017.5 in /  34452.6 hPa SW 17.7 mph /  28.5 km/h 30.6 mph /  49.2 km/h 82 % 0.0 in /  0 mm
00:57 6.7 °F /  -14.1 °C 3.8 °F /  -15.7 °C 1017.5 in /  34452.6 hPa WSW 12.9 mph /  20.8 km/h 27.4 mph /  44.1 km/h 82 % 0.0 in /  0 mm
01:02 6.7 °F /  -14.1 °C 3.7 °F /  -15.7 °C 1017.5 in /  34452.6 hPa SW 9.7 mph /  15.6 km/h 27.4 mph /  44.1 km/h 81 % 0.0 in /  0 mm
01:12 6.8 °F /  -14 °C 3.8 °F /  -15.7 °C 1017.2 in /  34442.4 hPa SW 14.5 mph /  23.3 km/h 25.7 mph /  41.4 km/h 81 % 0.0 in /  0 mm
01:17 6.8 °F /  -14 °C 3.8 °F /  -15.7 °C 1017.2 in /  34442.4 hPa South 11.3 mph /  18.2 km/h 27.4 mph /  44.1 km/h 81 % 0.0 in /  0 mm
01:22 6.8 °F /  -14 °C 3.8 °F /  -15.7 °C 1017.2 in /  34442.4 hPa WSW 17.7 mph /  28.5 km/h 27.4 mph /  44.1 km/h 81 % 0.0 in /  0 mm
01:32 6.9 °F /  -13.9 °C 3.7 °F /  -15.7 °C 1017.2 in /  34442.4 hPa SW 12.9 mph /  20.8 km/h 27.4 mph /  44.1 km/h 80 % 0.0 in /  0 mm
01:37 6.8 °F /  -14 °C 3.8 °F /  -15.7 °C 1017.2 in /  34442.4 hPa SSW 4.8 mph /  7.7 km/h 22.5 mph /  36.2 km/h 81 % 0.0 in /  0 mm
01:42 6.8 °F /  -14 °C 3.8 °F /  -15.7 °C 1017.2 in /  34442.4 hPa SSW 14.5 mph /  23.3 km/h 22.5 mph /  36.2 km/h 81 % 0.0 in /  0 mm
01:47 6.8 °F /  -14 °C 3.8 °F /  -15.7 °C 1016.8 in /  34428.8 hPa SSW 9.7 mph /  15.6 km/h 22.5 mph /  36.2 km/h 81 % 0.0 in /  0 mm
01:52 6.8 °F /  -14 °C 3.8 °F /  -15.7 °C 1016.8 in /  34428.8 hPa WSW 11.3 mph /  18.2 km/h 22.5 mph /  36.2 km/h 81 % 0.0 in /  0 mm
02:02 6.8 °F /  -14 °C 3.8 °F /  -15.7 °C 1016.8 in /  34428.8 hPa SW 12.9 mph /  20.8 km/h 22.5 mph /  36.2 km/h 81 % 0.0 in /  0 mm
02:12 6.7 °F /  -14.1 °C 3.7 °F /  -15.7 °C 1016.5 in /  34418.7 hPa SW 17.7 mph /  28.5 km/h 20.9 mph /  33.6 km/h 81 % 0.0 in /  0 mm
02:17 6.7 °F /  -14.1 °C 3.8 °F /  -15.7 °C 1016.5 in /  34418.7 hPa SW 8.0 mph /  12.9 km/h 22.5 mph /  36.2 km/h 82 % 0.0 in /  0 mm
02:22 6.6 °F /  -14.1 °C 3.7 °F /  -15.7 °C 1016.5 in /  34418.7 hPa SW 19.3 mph /  31.1 km/h 22.5 mph /  36.2 km/h 82 % 0.0 in /  0 mm
02:27 6.6 °F /  -14.1 °C 3.7 °F /  -15.7 °C 1016.5 in /  34418.7 hPa WSW 14.5 mph /  23.3 km/h 24.1 mph /  38.8 km/h 82 % 0.0 in /  0 mm
02:32 6.6 °F /  -14.1 °C 3.7 °F /  -15.7 °C 1016.5 in /  34418.7 hPa SW 11.3 mph /  18.2 km/h 24.1 mph /  38.8 km/h 82 % 0.0 in /  0 mm
02:37 6.5 °F /  -14.2 °C 3.8 °F /  -15.7 °C 1016.5 in /  34418.7 hPa SW 14.5 mph /  23.3 km/h 22.5 mph /  36.2 km/h 83 % 0.0 in /  0 mm
02:42 6.6 °F /  -14.1 °C 3.9 °F /  -15.6 °C 1016.5 in /  34418.7 hPa SW 16.1 mph /  25.9 km/h 22.5 mph /  36.2 km/h 83 % 0.0 in /  0 mm
02:52 6.6 °F /  -14.1 °C 3.7 °F /  -15.7 °C 1016.1 in /  34405.1 hPa SW 9.7 mph /  15.6 km/h 22.5 mph /  36.2 km/h 82 % 0.0 in /  0 mm
02:57 6.5 °F /  -14.2 °C 3.8 °F /  -15.7 °C 1016.1 in /  34405.1 hPa SSW 11.3 mph /  18.2 km/h 22.5 mph /  36.2 km/h 83 % 0.0 in /  0 mm
03:02 6.4 °F /  -14.2 °C 3.7 °F /  -15.7 °C 1016.1 in /  34405.1 hPa South 8.0 mph /  12.9 km/h 22.5 mph /  36.2 km/h 83 % 0.0 in /  0 mm
03:07 6.4 °F /  -14.2 °C 3.7 °F /  -15.7 °C 1015.8 in /  34395 hPa SW 16.1 mph /  25.9 km/h 22.5 mph /  36.2 km/h 83 % 0.0 in /  0 mm
03:12 6.5 °F /  -14.2 °C 3.8 °F /  -15.7 °C 1015.8 in /  34395 hPa SW 11.3 mph /  18.2 km/h 22.5 mph /  36.2 km/h 83 % 0.0 in /  0 mm
03:17 6.5 °F /  -14.2 °C 3.8 °F /  -15.7 °C 1015.8 in /  34395 hPa SSW 14.5 mph /  23.3 km/h 22.5 mph /  36.2 km/h 83 % 0.0 in /  0 mm
03:22 6.4 °F /  -14.2 °C 3.7 °F /  -15.7 °C 1015.8 in /  34395 hPa SW 19.3 mph /  31.1 km/h 22.5 mph /  36.2 km/h 83 % 0.0 in /  0 mm
03:27 6.5 °F /  -14.2 °C 3.8 °F /  -15.7 °C 1015.5 in /  34384.8 hPa SSW 17.7 mph /  28.5 km/h 22.5 mph /  36.2 km/h 83 % 0.0 in /  0 mm
03:32 6.5 °F /  -14.2 °C 3.8 °F /  -15.7 °C 1015.5 in /  34384.8 hPa SSW 12.9 mph /  20.8 km/h 22.5 mph /  36.2 km/h 83 % 0.0 in /  0 mm
03:37 6.5 °F /  -14.2 °C 3.8 °F /  -15.7 °C 1015.5 in /  34384.8 hPa SW 16.1 mph /  25.9 km/h 20.9 mph /  33.6 km/h 83 % 0.0 in /  0 mm
03:42 6.5 °F /  -14.2 °C 3.8 °F /  -15.7 °C 1015.5 in /  34384.8 hPa SW 19.3 mph /  31.1 km/h 20.9 mph /  33.6 km/h 83 % 0.0 in /  0 mm
03:52 6.7 °F /  -14.1 °C 3.8 °F /  -15.7 °C 1015.5 in /  34384.8 hPa WSW 12.9 mph /  20.8 km/h 22.5 mph /  36.2 km/h 82 % 0.0 in /  0 mm
03:57 6.7 °F /  -14.1 °C 3.8 °F /  -15.7 °C 1015.1 in /  34371.3 hPa SW 14.5 mph /  23.3 km/h 22.5 mph /  36.2 km/h 82 % 0.0 in /  0 mm
04:02 6.7 °F /  -14.1 °C 4.0 °F /  -15.6 °C 1015.1 in /  34371.3 hPa SW 11.3 mph /  18.2 km/h 22.5 mph /  36.2 km/h 83 % 0.0 in /  0 mm
04:12 6.7 °F /  -14.1 °C 4.2 °F /  -15.4 °C 1015.1 in /  34371.3 hPa WSW 3.2 mph /  5.1 km/h 22.5 mph /  36.2 km/h 84 % 0.0 in /  0 mm
04:17 6.6 °F /  -14.1 °C 4.1 °F /  -15.5 °C 1015.1 in /  34371.3 hPa SW 12.9 mph /  20.8 km/h 22.5 mph /  36.2 km/h 84 % 0.0 in /  0 mm
04:22 6.5 °F /  -14.2 °C 4.2 °F /  -15.4 °C 1015.1 in /  34371.3 hPa SW 16.1 mph /  25.9 km/h 22.5 mph /  36.2 km/h 85 % 0.0 in /  0 mm
04:27 6.4 °F /  -14.2 °C 4.2 °F /  -15.4 °C 1015.1 in /  34371.3 hPa SW 16.1 mph /  25.9 km/h 24.1 mph /  38.8 km/h 86 % 0.3 in /  7.62 mm
04:32 6.4 °F /  -14.2 °C 4.4 °F /  -15.3 °C 1014.8 in /  34361.1 hPa SW 11.3 mph /  18.2 km/h 24.1 mph /  38.8 km/h 87 % 0.3 in /  7.62 mm
04:37 6.3 °F /  -14.3 °C 4.3 °F /  -15.4 °C 1014.8 in /  34361.1 hPa SW 12.9 mph /  20.8 km/h 24.1 mph /  38.8 km/h 87 % 0.5 in /  12.7 mm
04:47 6.2 °F /  -14.3 °C 4.4 °F /  -15.3 °C 1014.4 in /  34347.6 hPa SSW 6.4 mph /  10.3 km/h 24.1 mph /  38.8 km/h 88 % 0.8 in /  20.32 mm
04:52 6.1 °F /  -14.4 °C 4.4 °F /  -15.3 °C 1014.4 in /  34347.6 hPa SW 16.1 mph /  25.9 km/h 24.1 mph /  38.8 km/h 89 % 0.8 in /  20.32 mm
05:02 6.1 °F /  -14.4 °C 4.4 °F /  -15.3 °C 1014.4 in /  34347.6 hPa SW 12.9 mph /  20.8 km/h 24.1 mph /  38.8 km/h 89 % 0.8 in /  20.32 mm
05:12 5.9 °F /  -14.5 °C 4.4 °F /  -15.3 °C 1014.4 in /  34347.6 hPa WSW 19.3 mph /  31.1 km/h 29.0 mph /  46.7 km/h 90 % 1.0 in /  25.4 mm
05:17 5.9 °F /  -14.5 °C 4.4 °F /  -15.3 °C 1014.4 in /  34347.6 hPa SW 17.7 mph /  28.5 km/h 25.7 mph /  41.4 km/h 90 % 1.0 in /  25.4 mm
05:22 5.8 °F /  -14.6 °C 4.4 °F /  -15.3 °C 1014.1 in /  34337.4 hPa SW 14.5 mph /  23.3 km/h 25.7 mph /  41.4 km/h 91 % 1.0 in /  25.4 mm
05:27 5.8 °F /  -14.6 °C 4.4 °F /  -15.3 °C 1014.1 in /  34337.4 hPa WSW 17.7 mph /  28.5 km/h 29.0 mph /  46.7 km/h 91 % 1.0 in /  25.4 mm
05:32 5.8 °F /  -14.6 °C 4.4 °F /  -15.3 °C 1014.1 in /  34337.4 hPa SW 17.7 mph /  28.5 km/h 29.0 mph /  46.7 km/h 91 % 1.0 in /  25.4 mm
05:42 5.7 °F /  -14.6 °C 4.5 °F /  -15.3 °C 1014.1 in /  34337.4 hPa SW 19.3 mph /  31.1 km/h 29.0 mph /  46.7 km/h 92 % 0.8 in /  20.32 mm
05:47 5.7 °F /  -14.6 °C 4.5 °F /  -15.3 °C 1013.8 in /  34327.3 hPa SSW 9.7 mph /  15.6 km/h 25.7 mph /  41.4 km/h 92 % 0.5 in /  12.7 mm
05:52 5.7 °F /  -14.6 °C 4.5 °F /  -15.3 °C 1014.1 in /  34337.4 hPa SSW 17.7 mph /  28.5 km/h 25.7 mph /  41.4 km/h 92 % 0.5 in /  12.7 mm
05:57 5.7 °F /  -14.6 °C 4.7 °F /  -15.2 °C 1013.8 in /  34327.3 hPa SW 3.2 mph /  5.1 km/h 22.5 mph /  36.2 km/h 93 % 0.8 in /  20.32 mm
06:02 5.7 °F /  -14.6 °C 4.7 °F /  -15.2 °C 1013.8 in /  34327.3 hPa SW 17.7 mph /  28.5 km/h 22.5 mph /  36.2 km/h 93 % 0.8 in /  20.32 mm
06:12 5.6 °F /  -14.7 °C 4.7 °F /  -15.2 °C 1014.1 in /  34337.4 hPa WSW 16.1 mph /  25.9 km/h 24.1 mph /  38.8 km/h 94 % 0.8 in /  20.32 mm
06:17 5.6 °F /  -14.7 °C 4.7 °F /  -15.2 °C 1014.1 in /  34337.4 hPa WSW 6.4 mph /  10.3 km/h 24.1 mph /  38.8 km/h 94 % 1.0 in /  25.4 mm
06:22 5.6 °F /  -14.7 °C 4.7 °F /  -15.2 °C 1014.1 in /  34337.4 hPa SW 8.0 mph /  12.9 km/h 24.1 mph /  38.8 km/h 94 % 1.0 in /  25.4 mm
06:32 5.6 °F /  -14.7 °C 4.7 °F /  -15.2 °C 1014.1 in /  34337.4 hPa South 3.2 mph /  5.1 km/h 22.5 mph /  36.2 km/h 94 % 1.3 in /  33.02 mm
06:37 5.5 °F /  -14.7 °C 4.6 °F /  -15.2 °C 1014.1 in /  34337.4 hPa West 3.2 mph /  5.1 km/h 22.5 mph /  36.2 km/h 94 % 1.3 in /  33.02 mm
06:42 5.5 °F /  -14.7 °C 4.6 °F /  -15.2 °C 1014.1 in /  34337.4 hPa WSW 8.0 mph /  12.9 km/h 19.3 mph /  31.1 km/h 94 % 1.5 in /  38.1 mm
06:52 5.5 °F /  -14.7 °C 4.6 °F /  -15.2 °C 1014.1 in /  34337.4 hPa West 4.8 mph /  7.7 km/h 19.3 mph /  31.1 km/h 94 % 1.5 in /  38.1 mm
07:02 5.5 °F /  -14.7 °C 4.6 °F /  -15.2 °C 1014.1 in /  34337.4 hPa West 11.3 mph /  18.2 km/h 14.5 mph /  23.3 km/h 94 % 1.8 in /  45.72 mm
07:12 5.4 °F /  -14.8 °C 4.5 °F /  -15.3 °C 1013.8 in /  34327.3 hPa SW 9.7 mph /  15.6 km/h 17.7 mph /  28.5 km/h 94 % 1.8 in /  45.72 mm
07:17 5.4 °F /  -14.8 °C 4.5 °F /  -15.3 °C 1013.8 in /  34327.3 hPa SW 6.4 mph /  10.3 km/h 16.1 mph /  25.9 km/h 94 % 1.5 in /  38.1 mm
07:22 5.4 °F /  -14.8 °C 4.5 °F /  -15.3 °C 1013.8 in /  34327.3 hPa WSW 8.0 mph /  12.9 km/h 16.1 mph /  25.9 km/h 94 % 1.5 in /  38.1 mm
07:32 5.4 °F /  -14.8 °C 4.5 °F /  -15.3 °C 1013.4 in /  34313.7 hPa WSW 14.5 mph /  23.3 km/h 16.1 mph /  25.9 km/h 94 % 1.5 in /  38.1 mm
07:37 5.4 °F /  -14.8 °C 4.5 °F /  -15.3 °C 1013.4 in /  34313.7 hPa SW 1.6 mph /  2.6 km/h 17.7 mph /  28.5 km/h 94 % 1.3 in /  33.02 mm
07:42 5.4 °F /  -14.8 °C 4.5 °F /  -15.3 °C 1013.4 in /  34313.7 hPa SW 9.7 mph /  15.6 km/h 17.7 mph /  28.5 km/h 94 % 1.3 in /  33.02 mm
07:52 5.3 °F /  -14.8 °C 4.4 °F /  -15.3 °C 1013.4 in /  34313.7 hPa WSW 4.8 mph /  7.7 km/h 17.7 mph /  28.5 km/h 94 % 1.3 in /  33.02 mm
07:57 5.3 °F /  -14.8 °C 4.4 °F /  -15.3 °C 1013.4 in /  34313.7 hPa SW 9.7 mph /  15.6 km/h 17.7 mph /  28.5 km/h 94 % 0.8 in /  20.32 mm
08:02 5.3 °F /  -14.8 °C 4.4 °F /  -15.3 °C 1013.1 in /  34303.6 hPa WSW 6.4 mph /  10.3 km/h 17.7 mph /  28.5 km/h 94 % 0.8 in /  20.32 mm
08:12 5.3 °F /  -14.8 °C 4.4 °F /  -15.3 °C 1013.1 in /  34303.6 hPa West 8.0 mph /  12.9 km/h 22.5 mph /  36.2 km/h 94 % 0.8 in /  20.32 mm
08:17 5.3 °F /  -14.8 °C 4.4 °F /  -15.3 °C 1013.1 in /  34303.6 hPa West 9.7 mph /  15.6 km/h 24.1 mph /  38.8 km/h 94 % 0.8 in /  20.32 mm
08:22 5.3 °F /  -14.8 °C 4.4 °F /  -15.3 °C 1013.1 in /  34303.6 hPa WSW 11.3 mph /  18.2 km/h 24.1 mph /  38.8 km/h 94 % 0.8 in /  20.32 mm
08:32 5.3 °F /  -14.8 °C 4.4 °F /  -15.3 °C 1013.1 in /  34303.6 hPa SSW 11.3 mph /  18.2 km/h 19.3 mph /  31.1 km/h 94 % 1.0 in /  25.4 mm
08:42 5.3 °F /  -14.8 °C 4.4 °F /  -15.3 °C 1013.1 in /  34303.6 hPa SW 16.1 mph /  25.9 km/h 20.9 mph /  33.6 km/h 94 % 0.8 in /  20.32 mm
08:52 5.4 °F /  -14.8 °C 4.5 °F /  -15.3 °C 1013.1 in /  34303.6 hPa WSW 8.0 mph /  12.9 km/h 22.5 mph /  36.2 km/h 94 % 0.8 in /  20.32 mm
08:57 5.3 °F /  -14.8 °C 4.4 °F /  -15.3 °C 1013.1 in /  34303.6 hPa WSW 8.0 mph /  12.9 km/h 22.5 mph /  36.2 km/h 94 % 1.0 in /  25.4 mm
09:02 5.4 °F /  -14.8 °C 4.7 °F /  -15.2 °C 1013.1 in /  34303.6 hPa SW 6.4 mph /  10.3 km/h 22.5 mph /  36.2 km/h 95 % 1.0 in /  25.4 mm
09:07 5.4 °F /  -14.8 °C 4.7 °F /  -15.2 °C 1013.1 in /  34303.6 hPa SW 11.3 mph /  18.2 km/h 17.7 mph /  28.5 km/h 95 % 1.0 in /  25.4 mm
09:12 5.4 °F /  -14.8 °C 4.5 °F /  -15.3 °C 1013.1 in /  34303.6 hPa SW 8.0 mph /  12.9 km/h 17.7 mph /  28.5 km/h 94 % 1.0 in /  25.4 mm
09:17 5.4 °F /  -14.8 °C 4.5 °F /  -15.3 °C 1012.8 in /  34293.4 hPa WSW 17.7 mph /  28.5 km/h 20.9 mph /  33.6 km/h 94 % 0.8 in /  20.32 mm
09:22 5.4 °F /  -14.8 °C 4.5 °F /  -15.3 °C 1012.8 in /  34293.4 hPa SW 12.9 mph /  20.8 km/h 20.9 mph /  33.6 km/h 94 % 0.8 in /  20.32 mm
09:32 5.4 °F /  -14.8 °C 4.5 °F /  -15.3 °C 1012.8 in /  34293.4 hPa WSW 11.3 mph /  18.2 km/h 24.1 mph /  38.8 km/h 94 % 0.8 in /  20.32 mm
09:37 5.4 °F /  -14.8 °C 4.5 °F /  -15.3 °C 1012.8 in /  34293.4 hPa SW 11.3 mph /  18.2 km/h 20.9 mph /  33.6 km/h 94 % 0.8 in /  20.32 mm
09:42 5.4 °F /  -14.8 °C 4.5 °F /  -15.3 °C 1012.8 in /  34293.4 hPa WSW 6.4 mph /  10.3 km/h 20.9 mph /  33.6 km/h 94 % 0.8 in /  20.32 mm
09:47 5.4 °F /  -14.8 °C 4.5 °F /  -15.3 °C 1012.8 in /  34293.4 hPa SW 16.1 mph /  25.9 km/h 25.7 mph /  41.4 km/h 94 % 1.0 in /  25.4 mm
09:52 5.4 °F /  -14.8 °C 4.5 °F /  -15.3 °C 1012.8 in /  34293.4 hPa West 14.5 mph /  23.3 km/h 25.7 mph /  41.4 km/h 94 % 1.0 in /  25.4 mm
09:57 5.4 °F /  -14.8 °C 4.5 °F /  -15.3 °C 1012.8 in /  34293.4 hPa WSW 9.7 mph /  15.6 km/h 25.7 mph /  41.4 km/h 94 % 0.8 in /  20.32 mm
10:02 5.4 °F /  -14.8 °C 4.5 °F /  -15.3 °C 1012.8 in /  34293.4 hPa WSW 24.1 mph /  38.8 km/h 25.7 mph /  41.4 km/h 94 % 0.8 in /  20.32 mm
10:07 5.4 °F /  -14.8 °C 4.5 °F /  -15.3 °C 1012.8 in /  34293.4 hPa WSW 12.9 mph /  20.8 km/h 25.7 mph /  41.4 km/h 94 % 0.8 in /  20.32 mm
10:12 5.4 °F /  -14.8 °C 4.5 °F /  -15.3 °C 1012.4 in /  34279.9 hPa SW 4.8 mph /  7.7 km/h 25.7 mph /  41.4 km/h 94 % 0.8 in /  20.32 mm
10:17 5.4 °F /  -14.8 °C 4.5 °F /  -15.3 °C 1012.4 in /  34279.9 hPa WSW 9.7 mph /  15.6 km/h 24.1 mph /  38.8 km/h 94 % 1.0 in /  25.4 mm
10:22 5.4 °F /  -14.8 °C 4.5 °F /  -15.3 °C 1012.4 in /  34279.9 hPa SW 8.0 mph /  12.9 km/h 24.1 mph /  38.8 km/h 94 % 1.0 in /  25.4 mm
10:32 5.4 °F /  -14.8 °C 4.5 °F /  -15.3 °C 1012.4 in /  34279.9 hPa WSW 11.3 mph /  18.2 km/h 24.1 mph /  38.8 km/h 94 % 0.8 in /  20.32 mm
10:42 5.4 °F /  -14.8 °C 4.5 °F /  -15.3 °C 1012.4 in /  34279.9 hPa WSW 19.3 mph /  31.1 km/h 24.1 mph /  38.8 km/h 94 % 0.8 in /  20.32 mm
10:47 5.4 °F /  -14.8 °C 4.5 °F /  -15.3 °C 1012.4 in /  34279.9 hPa WSW 8.0 mph /  12.9 km/h 20.9 mph /  33.6 km/h 94 % 0.8 in /  20.32 mm
10:52 5.3 °F /  -14.8 °C 4.4 °F /  -15.3 °C 1012.4 in /  34279.9 hPa SW 9.7 mph /  15.6 km/h 20.9 mph /  33.6 km/h 94 % 0.8 in /  20.32 mm
10:57 5.3 °F /  -14.8 °C 4.4 °F /  -15.3 °C 1012.4 in /  34279.9 hPa WSW 14.5 mph /  23.3 km/h 27.4 mph /  44.1 km/h 94 % 1.0 in /  25.4 mm
11:02 5.3 °F /  -14.8 °C 4.4 °F /  -15.3 °C 1012.4 in /  34279.9 hPa SW 1.6 mph /  2.6 km/h 27.4 mph /  44.1 km/h 94 % 1.0 in /  25.4 mm
11:12 5.3 °F /  -14.8 °C 4.4 °F /  -15.3 °C 1012.4 in /  34279.9 hPa WSW 12.9 mph /  20.8 km/h 22.5 mph /  36.2 km/h 94 % 0.8 in /  20.32 mm
11:17 5.3 °F /  -14.8 °C 4.4 °F /  -15.3 °C 1012.1 in /  34269.7 hPa SW 16.1 mph /  25.9 km/h 24.1 mph /  38.8 km/h 94 % 0.8 in /  20.32 mm
11:22 5.3 °F /  -14.8 °C 4.4 °F /  -15.3 °C 1012.1 in /  34269.7 hPa SSW 8.0 mph /  12.9 km/h 24.1 mph /  38.8 km/h 94 % 0.8 in /  20.32 mm
11:27 5.3 °F /  -14.8 °C 4.4 °F /  -15.3 °C 1012.1 in /  34269.7 hPa WSW 8.0 mph /  12.9 km/h 27.4 mph /  44.1 km/h 94 % 0.8 in /  20.32 mm
11:32 5.3 °F /  -14.8 °C 4.4 °F /  -15.3 °C 1012.1 in /  34269.7 hPa WSW 9.7 mph /  15.6 km/h 27.4 mph /  44.1 km/h 94 % 0.8 in /  20.32 mm
11:37 5.3 °F /  -14.8 °C 4.4 °F /  -15.3 °C 1012.1 in /  34269.7 hPa WSW 14.5 mph /  23.3 km/h 24.1 mph /  38.8 km/h 94 % 1.0 in /  25.4 mm
11:42 5.2 °F /  -14.9 °C 4.3 °F /  -15.4 °C 1011.7 in /  34256.2 hPa WSW 9.7 mph /  15.6 km/h 24.1 mph /  38.8 km/h 94 % 1.0 in /  25.4 mm
11:52 5.2 °F /  -14.9 °C 4.5 °F /  -15.3 °C 1011.7 in /  34256.2 hPa WSW 8.0 mph /  12.9 km/h 20.9 mph /  33.6 km/h 95 % 0.8 in /  20.32 mm
11:57 5.2 °F /  -14.9 °C 4.5 °F /  -15.3 °C 1011.7 in /  34256.2 hPa WSW 14.5 mph /  23.3 km/h 20.9 mph /  33.6 km/h 95 % 0.8 in /  20.32 mm
12:02 5.2 °F /  -14.9 °C 4.5 °F /  -15.3 °C 1011.7 in /  34256.2 hPa West 6.4 mph /  10.3 km/h 20.9 mph /  33.6 km/h 95 % 0.8 in /  20.32 mm
12:12 5.2 °F /  -14.9 °C 4.5 °F /  -15.3 °C 1011.7 in /  34256.2 hPa WSW 12.9 mph /  20.8 km/h 20.9 mph /  33.6 km/h 95 % 0.8 in /  20.32 mm
12:17 5.3 °F /  -14.8 °C 4.6 °F /  -15.2 °C 1011.4 in /  34246 hPa WSW 4.8 mph /  7.7 km/h 19.3 mph /  31.1 km/h 95 % 0.8 in /  20.32 mm
12:22 5.3 °F /  -14.8 °C 4.6 °F /  -15.2 °C 1011.4 in /  34246 hPa West 4.8 mph /  7.7 km/h 19.3 mph /  31.1 km/h 95 % 0.8 in /  20.32 mm
12:32 5.2 °F /  -14.9 °C 4.5 °F /  -15.3 °C 1011.4 in /  34246 hPa WSW 14.5 mph /  23.3 km/h 19.3 mph /  31.1 km/h 95 % 1.0 in /  25.4 mm
12:37 5.3 °F /  -14.8 °C 4.6 °F /  -15.2 °C 1011.4 in /  34246 hPa WSW 8.0 mph /  12.9 km/h 22.5 mph /  36.2 km/h 95 % 1.0 in /  25.4 mm
12:42 5.3 °F /  -14.8 °C 4.6 °F /  -15.2 °C 1011.1 in /  34235.8 hPa SW 3.2 mph /  5.1 km/h 22.5 mph /  36.2 km/h 95 % 1.0 in /  25.4 mm
12:47 5.3 °F /  -14.8 °C 4.6 °F /  -15.2 °C 1011.1 in /  34235.8 hPa SW 8.0 mph /  12.9 km/h 19.3 mph /  31.1 km/h 95 % 1.3 in /  33.02 mm
12:52 5.3 °F /  -14.8 °C 4.6 °F /  -15.2 °C 1011.1 in /  34235.8 hPa West 6.4 mph /  10.3 km/h 19.3 mph /  31.1 km/h 95 % 1.3 in /  33.02 mm
12:57 5.3 °F /  -14.8 °C 4.6 °F /  -15.2 °C 1011.1 in /  34235.8 hPa WSW 4.8 mph /  7.7 km/h 19.3 mph /  31.1 km/h 95 % 1.3 in /  33.02 mm
13:02 5.3 °F /  -14.8 °C 4.6 °F /  -15.2 °C 1011.1 in /  34235.8 hPa WSW 4.8 mph /  7.7 km/h 16.1 mph /  25.9 km/h 95 % 1.0 in /  25.4 mm
13:12 5.3 °F /  -14.8 °C 4.6 °F /  -15.2 °C 1010.7 in /  34222.3 hPa WSW 4.8 mph /  7.7 km/h 16.1 mph /  25.9 km/h 95 % 1.0 in /  25.4 mm
13:17 5.3 °F /  -14.8 °C 4.6 °F /  -15.2 °C 1010.7 in /  34222.3 hPa SW 4.8 mph /  7.7 km/h 14.5 mph /  23.3 km/h 95 % 0.8 in /  20.32 mm
13:22 5.3 °F /  -14.8 °C 4.6 °F /  -15.2 °C 1010.7 in /  34222.3 hPa West 4.8 mph /  7.7 km/h 14.5 mph /  23.3 km/h 95 % 0.8 in /  20.32 mm
13:32 5.4 °F /  -14.8 °C 4.7 °F /  -15.2 °C 1010.4 in /  34212.1 hPa WSW 3.2 mph /  5.1 km/h 12.9 mph /  20.8 km/h 95 % 0.5 in /  12.7 mm
13:37 5.4 °F /  -14.8 °C 4.7 °F /  -15.2 °C 1010.4 in /  34212.1 hPa WSW 6.4 mph /  10.3 km/h 12.9 mph /  20.8 km/h 95 % 0.5 in /  12.7 mm
13:42 5.4 °F /  -14.8 °C 4.7 °F /  -15.2 °C 1010.4 in /  34212.1 hPa SW 3.2 mph /  5.1 km/h 12.9 mph /  20.8 km/h 95 % 0.5 in /  12.7 mm
13:47 5.4 °F /  -14.8 °C 4.7 °F /  -15.2 °C 1010.4 in /  34212.1 hPa West 1.6 mph /  2.6 km/h 11.3 mph /  18.2 km/h 95 % 0.3 in /  7.62 mm
13:52 5.5 °F /  -14.7 °C 4.8 °F /  -15.1 °C 1010.4 in /  34212.1 hPa WSW 1.6 mph /  2.6 km/h 11.3 mph /  18.2 km/h 95 % 0.3 in /  7.62 mm
14:02 5.5 °F /  -14.7 °C 4.8 °F /  -15.1 °C 1010.4 in /  34212.1 hPa SW 6.4 mph /  10.3 km/h 11.3 mph /  18.2 km/h 95 % 0.3 in /  7.62 mm
14:17 5.6 °F /  -14.7 °C 4.7 °F /  -15.2 °C 1010.0 in /  34198.6 hPa SW 6.4 mph /  10.3 km/h 12.9 mph /  20.8 km/h 94 % 0.0 in /  0 mm
14:22 5.6 °F /  -14.7 °C 4.7 °F /  -15.2 °C 1010.0 in /  34198.6 hPa West 4.8 mph /  7.7 km/h 12.9 mph /  20.8 km/h 94 % 0.0 in /  0 mm
14:32 5.7 °F /  -14.6 °C 4.8 °F /  -15.1 °C 1010.0 in /  34198.6 hPa West 3.2 mph /  5.1 km/h 12.9 mph /  20.8 km/h 94 % 0.0 in /  0 mm
14:37 5.7 °F /  -14.6 °C 4.8 °F /  -15.1 °C 1010.0 in /  34198.6 hPa West 8.0 mph /  12.9 km/h 14.5 mph /  23.3 km/h 94 % 0.0 in /  0 mm
14:42 5.7 °F /  -14.6 °C 4.8 °F /  -15.1 °C 1010.0 in /  34198.6 hPa West 4.8 mph /  7.7 km/h 14.5 mph /  23.3 km/h 94 % 0.0 in /  0 mm
14:52 5.7 °F /  -14.6 °C 4.8 °F /  -15.1 °C 1009.7 in /  34188.4 hPa West 4.8 mph /  7.7 km/h 14.5 mph /  23.3 km/h 94 % 0.0 in /  0 mm
15:02 5.8 °F /  -14.6 °C 4.9 °F /  -15.1 °C 1010.0 in /  34198.6 hPa West 4.8 mph /  7.7 km/h 16.1 mph /  25.9 km/h 94 % 0.0 in /  0 mm
15:07 5.9 °F /  -14.5 °C 5.0 °F /  -15 °C 1009.7 in /  34188.4 hPa West 6.4 mph /  10.3 km/h 9.7 mph /  15.6 km/h 94 % 0.0 in /  0 mm
15:12 5.9 °F /  -14.5 °C 5.0 °F /  -15 °C 1009.7 in /  34188.4 hPa WSW 1.6 mph /  2.6 km/h 9.7 mph /  15.6 km/h 94 % 0.0 in /  0 mm
15:22 6.0 °F /  -14.4 °C 5.1 °F /  -14.9 °C 1009.7 in /  34188.4 hPa West 4.8 mph /  7.7 km/h 11.3 mph /  18.2 km/h 94 % 0.0 in /  0 mm
15:32 6.0 °F /  -14.4 °C 5.1 °F /  -14.9 °C 1009.7 in /  34188.4 hPa WSW 8.0 mph /  12.9 km/h 11.3 mph /  18.2 km/h 94 % 0.0 in /  0 mm
15:37 6.0 °F /  -14.4 °C 5.0 °F /  -15 °C 1009.7 in /  34188.4 hPa WSW 8.0 mph /  12.9 km/h 12.9 mph /  20.8 km/h 93 % 0.0 in /  0 mm
15:42 5.9 °F /  -14.5 °C 4.9 °F /  -15.1 °C 1009.7 in /  34188.4 hPa SW 4.8 mph /  7.7 km/h 12.9 mph /  20.8 km/h 93 % 0.0 in /  0 mm
15:52 5.8 °F /  -14.6 °C 4.8 °F /  -15.1 °C 1009.7 in /  34188.4 hPa Calm   9.7 mph /  15.6 km/h 93 % 0.0 in /  0 mm
15:57 5.8 °F /  -14.6 °C 4.8 °F /  -15.1 °C 1009.7 in /  34188.4 hPa WSW 1.6 mph /  2.6 km/h 9.7 mph /  15.6 km/h 93 % 0.0 in /  0 mm
16:07 5.9 °F /  -14.5 °C 5.0 °F /  -15 °C 1009.7 in /  34188.4 hPa WSW 1.6 mph /  2.6 km/h 8.0 mph /  12.9 km/h 94 % 0.0 in /  0 mm
16:17 5.9 °F /  -14.5 °C 5.0 °F /  -15 °C 1009.7 in /  34188.4 hPa Calm   6.4 mph /  10.3 km/h 94 % 0.0 in /  0 mm
16:22 5.9 °F /  -14.5 °C 4.9 °F /  -15.1 °C 1009.7 in /  34188.4 hPa Calm   6.4 mph /  10.3 km/h 93 % 0.0 in /  0 mm
16:27 6.0 °F /  -14.4 °C 5.1 °F /  -14.9 °C 1009.7 in /  34188.4 hPa SW 1.6 mph /  2.6 km/h 3.2 mph /  5.1 km/h 94 % 0.0 in /  0 mm
16:57 5.4 °F /  -14.8 °C 4.5 °F /  -15.3 °C 1009.4 in /  34178.3 hPa WSW 3.2 mph /  5.1 km/h 4.8 mph /  7.7 km/h 94 % 0.0 in /  0 mm
17:02 5.3 °F /  -14.8 °C 4.4 °F /  -15.3 °C 1009.4 in /  34178.3 hPa Calm   4.8 mph /  7.7 km/h 94 % 0.0 in /  0 mm
17:07 5.2 °F /  -14.9 °C 4.3 °F /  -15.4 °C 1009.4 in /  34178.3 hPa West 1.6 mph /  2.6 km/h 4.8 mph /  7.7 km/h 94 % 0.0 in /  0 mm
17:17 5.2 °F /  -14.9 °C 4.3 °F /  -15.4 °C 1009.4 in /  34178.3 hPa West 4.8 mph /  7.7 km/h 12.9 mph /  20.8 km/h 94 % 0.0 in /  0 mm
17:22 5.2 °F /  -14.9 °C 4.3 °F /  -15.4 °C 1009.4 in /  34178.3 hPa SW 4.8 mph /  7.7 km/h 12.9 mph /  20.8 km/h 94 % 0.0 in /  0 mm
17:32 5.2 °F /  -14.9 °C 4.3 °F /  -15.4 °C 1009.4 in /  34178.3 hPa WSW 3.2 mph /  5.1 km/h 12.9 mph /  20.8 km/h 94 % 0.0 in /  0 mm
17:37 5.2 °F /  -14.9 °C 4.3 °F /  -15.4 °C 1009.7 in /  34188.4 hPa SW 4.8 mph /  7.7 km/h 14.5 mph /  23.3 km/h 94 % 0.0 in /  0 mm
17:42 5.2 °F /  -14.9 °C 4.3 °F /  -15.4 °C 1009.4 in /  34178.3 hPa SW 1.6 mph /  2.6 km/h 14.5 mph /  23.3 km/h 94 % 0.0 in /  0 mm
17:47 5.1 °F /  -14.9 °C 4.2 °F /  -15.4 °C 1009.4 in /  34178.3 hPa SW 3.2 mph /  5.1 km/h 8.0 mph /  12.9 km/h 94 % 0.0 in /  0 mm
17:52 5.1 °F /  -14.9 °C 4.2 °F /  -15.4 °C 1009.4 in /  34178.3 hPa SW 3.2 mph /  5.1 km/h 8.0 mph /  12.9 km/h 94 % 0.0 in /  0 mm
18:02 5.2 °F /  -14.9 °C 4.5 °F /  -15.3 °C 1009.4 in /  34178.3 hPa WSW 3.2 mph /  5.1 km/h 12.9 mph /  20.8 km/h 95 % 0.0 in /  0 mm
18:17 5.0 °F /  -15 °C 4.3 °F /  -15.4 °C 1009.4 in /  34178.3 hPa SSW 4.8 mph /  7.7 km/h 11.3 mph /  18.2 km/h 95 % 0.0 in /  0 mm
18:22 4.9 °F /  -15.1 °C 4.2 °F /  -15.4 °C 1009.4 in /  34178.3 hPa SW 6.4 mph /  10.3 km/h 11.3 mph /  18.2 km/h 95 % 0.0 in /  0 mm
18:27 4.8 °F /  -15.1 °C 4.1 °F /  -15.5 °C 1009.4 in /  34178.3 hPa SSW 6.4 mph /  10.3 km/h 11.3 mph /  18.2 km/h 95 % 0.0 in /  0 mm
18:32 4.7 °F /  -15.2 °C 4.0 °F /  -15.6 °C 1009.4 in /  34178.3 hPa SSW 4.8 mph /  7.7 km/h 11.3 mph /  18.2 km/h 95 % 0.0 in /  0 mm
18:42 4.7 °F /  -15.2 °C 4.0 °F /  -15.6 °C 1009.4 in /  34178.3 hPa SSW 3.2 mph /  5.1 km/h 8.0 mph /  12.9 km/h 95 % 0.0 in /  0 mm
18:47 4.7 °F /  -15.2 °C 4.1 °F /  -15.5 °C 1009.4 in /  34178.3 hPa SW 1.6 mph /  2.6 km/h 12.9 mph /  20.8 km/h 96 % 0.0 in /  0 mm
18:52 4.8 °F /  -15.1 °C 4.2 °F /  -15.4 °C 1009.4 in /  34178.3 hPa SW 9.7 mph /  15.6 km/h 12.9 mph /  20.8 km/h 96 % 0.0 in /  0 mm
19:02 4.8 °F /  -15.1 °C 4.2 °F /  -15.4 °C 1009.4 in /  34178.3 hPa SSW 8.0 mph /  12.9 km/h 12.9 mph /  20.8 km/h 96 % 0.0 in /  0 mm
19:07 4.8 °F /  -15.1 °C 4.2 °F /  -15.4 °C 1009.4 in /  34178.3 hPa SW 3.2 mph /  5.1 km/h 12.9 mph /  20.8 km/h 96 % 0.0 in /  0 mm
19:17 4.8 °F /  -15.1 °C 4.2 °F /  -15.4 °C 1009.4 in /  34178.3 hPa SW 4.8 mph /  7.7 km/h 12.9 mph /  20.8 km/h 96 % 0.0 in /  0 mm
19:22 4.8 °F /  -15.1 °C 4.2 °F /  -15.4 °C 1009.4 in /  34178.3 hPa SW 8.0 mph /  12.9 km/h 12.9 mph /  20.8 km/h 96 % 0.0 in /  0 mm
19:27 4.9 °F /  -15.1 °C 4.3 °F /  -15.4 °C 1009.4 in /  34178.3 hPa SW 4.8 mph /  7.7 km/h 16.1 mph /  25.9 km/h 96 % 0.0 in /  0 mm
19:32 4.9 °F /  -15.1 °C 4.3 °F /  -15.4 °C 1009.4 in /  34178.3 hPa SW 4.8 mph /  7.7 km/h 16.1 mph /  25.9 km/h 96 % 0.0 in /  0 mm
19:42 4.9 °F /  -15.1 °C 4.3 °F /  -15.4 °C 1009.4 in /  34178.3 hPa WNW 3.2 mph /  5.1 km/h 14.5 mph /  23.3 km/h 96 % 0.0 in /  0 mm
19:47 4.9 °F /  -15.1 °C 4.3 °F /  -15.4 °C 1009.4 in /  34178.3 hPa SW 6.4 mph /  10.3 km/h 14.5 mph /  23.3 km/h 96 % 0.0 in /  0 mm
19:57 4.9 °F /  -15.1 °C 4.2 °F /  -15.4 °C 1009.4 in /  34178.3 hPa WSW 14.5 mph /  23.3 km/h 17.7 mph /  28.5 km/h 95 % 0.0 in /  0 mm
20:02 4.9 °F /  -15.1 °C 4.2 °F /  -15.4 °C 1009.4 in /  34178.3 hPa WSW 12.9 mph /  20.8 km/h 17.7 mph /  28.5 km/h 95 % 0.0 in /  0 mm
20:07 4.9 °F /  -15.1 °C 4.2 °F /  -15.4 °C 1009.4 in /  34178.3 hPa West 6.4 mph /  10.3 km/h 17.7 mph /  28.5 km/h 95 % 0.0 in /  0 mm
20:12 4.9 °F /  -15.1 °C 4.2 °F /  -15.4 °C 1009.4 in /  34178.3 hPa West 4.8 mph /  7.7 km/h 17.7 mph /  28.5 km/h 95 % 0.0 in /  0 mm
20:17 4.9 °F /  -15.1 °C 4.2 °F /  -15.4 °C 1009.4 in /  34178.3 hPa West 8.0 mph /  12.9 km/h 16.1 mph /  25.9 km/h 95 % 0.3 in /  7.62 mm
20:32 4.9 °F /  -15.1 °C 4.2 °F /  -15.4 °C 1009.0 in /  34164.7 hPa SSW 3.2 mph /  5.1 km/h 9.7 mph /  15.6 km/h 95 % 0.3 in /  7.62 mm
20:52 4.7 °F /  -15.2 °C 4.0 °F /  -15.6 °C 1009.0 in /  34164.7 hPa SSW 6.4 mph /  10.3 km/h 8.0 mph /  12.9 km/h 95 % 0.3 in /  7.62 mm
20:57 4.7 °F /  -15.2 °C 4.0 °F /  -15.6 °C 1009.0 in /  34164.7 hPa SW 3.2 mph /  5.1 km/h 11.3 mph /  18.2 km/h 95 % 0.3 in /  7.62 mm
21:02 4.7 °F /  -15.2 °C 4.0 °F /  -15.6 °C 1009.0 in /  34164.7 hPa West 1.6 mph /  2.6 km/h 11.3 mph /  18.2 km/h 95 % 0.3 in /  7.62 mm
21:12 4.8 °F /  -15.1 °C 4.1 °F /  -15.5 °C 1009.0 in /  34164.7 hPa WSW 1.6 mph /  2.6 km/h 11.3 mph /  18.2 km/h 95 % 0.3 in /  7.62 mm
21:17 4.8 °F /  -15.1 °C 4.1 °F /  -15.5 °C 1009.0 in /  34164.7 hPa Calm   11.3 mph /  18.2 km/h 95 % 0.0 in /  0 mm
21:22 4.8 °F /  -15.1 °C 4.1 °F /  -15.5 °C 1009.0 in /  34164.7 hPa SW 1.6 mph /  2.6 km/h 11.3 mph /  18.2 km/h 95 % 0.0 in /  0 mm
21:32 4.7 °F /  -15.2 °C 4.0 °F /  -15.6 °C 1009.0 in /  34164.7 hPa WSW 3.2 mph /  5.1 km/h 8.0 mph /  12.9 km/h 95 % 0.0 in /  0 mm
21:42 4.6 °F /  -15.2 °C 3.9 °F /  -15.6 °C 1009.0 in /  34164.7 hPa WSW 1.6 mph /  2.6 km/h 8.0 mph /  12.9 km/h 95 % 0.0 in /  0 mm
21:47 4.6 °F /  -15.2 °C 3.9 °F /  -15.6 °C 1009.0 in /  34164.7 hPa SW 3.2 mph /  5.1 km/h 6.4 mph /  10.3 km/h 95 % 0.0 in /  0 mm
21:52 4.6 °F /  -15.2 °C 3.9 °F /  -15.6 °C 1009.0 in /  34164.7 hPa WSW 4.8 mph /  7.7 km/h 6.4 mph /  10.3 km/h 95 % 0.0 in /  0 mm
21:57 4.7 °F /  -15.2 °C 4.0 °F /  -15.6 °C 1008.7 in /  34154.6 hPa West 4.8 mph /  7.7 km/h 9.7 mph /  15.6 km/h 95 % 0.0 in /  0 mm
22:02 4.7 °F /  -15.2 °C 4.0 °F /  -15.6 °C 1008.7 in /  34154.6 hPa WSW 1.6 mph /  2.6 km/h 9.7 mph /  15.6 km/h 95 % 0.0 in /  0 mm
22:07 4.7 °F /  -15.2 °C 4.0 °F /  -15.6 °C 1009.0 in /  34164.7 hPa WSW 3.2 mph /  5.1 km/h 9.7 mph /  15.6 km/h 95 % 0.0 in /  0 mm
22:17 4.7 °F /  -15.2 °C 4.0 °F /  -15.6 °C 1009.0 in /  34164.7 hPa West 1.6 mph /  2.6 km/h 6.4 mph /  10.3 km/h 95 % 0.0 in /  0 mm
22:27 4.7 °F /  -15.2 °C 4.0 °F /  -15.6 °C 1009.0 in /  34164.7 hPa SW 3.2 mph /  5.1 km/h 6.4 mph /  10.3 km/h 95 % 0.0 in /  0 mm
22:37 4.7 °F /  -15.2 °C 4.0 °F /  -15.6 °C 1009.0 in /  34164.7 hPa WSW 3.2 mph /  5.1 km/h 6.4 mph /  10.3 km/h 95 % 0.0 in /  0 mm
22:52 4.7 °F /  -15.2 °C 4.0 °F /  -15.6 °C 1009.0 in /  34164.7 hPa West 1.6 mph /  2.6 km/h 4.8 mph /  7.7 km/h 95 % 0.0 in /  0 mm
23:02 4.6 °F /  -15.2 °C 3.9 °F /  -15.6 °C 1009.0 in /  34164.7 hPa West 3.2 mph /  5.1 km/h 3.2 mph /  5.1 km/h 95 % 0.0 in /  0 mm
23:07 4.6 °F /  -15.2 °C 3.9 °F /  -15.6 °C 1009.0 in /  34164.7 hPa Calm   3.2 mph /  5.1 km/h 95 % 0.0 in /  0 mm
23:12 4.6 °F /  -15.2 °C 3.9 °F /  -15.6 °C 1009.0 in /  34164.7 hPa West 3.2 mph /  5.1 km/h 3.2 mph /  5.1 km/h 95 % 0.0 in /  0 mm
23:17 4.6 °F /  -15.2 °C 3.9 °F /  -15.6 °C 1009.0 in /  34164.7 hPa Calm   3.2 mph /  5.1 km/h 95 % 0.0 in /  0 mm
23:22 4.6 °F /  -15.2 °C 3.9 °F /  -15.6 °C 1009.0 in /  34164.7 hPa Calm   3.2 mph /  5.1 km/h 95 % 0.0 in /  0 mm
23:27 4.6 °F /  -15.2 °C 3.9 °F /  -15.6 °C 1009.0 in /  34164.7 hPa WNW 1.6 mph /  2.6 km/h 3.2 mph /  5.1 km/h 95 % 0.0 in /  0 mm
23:32 4.5 °F /  -15.3 °C 3.8 °F /  -15.7 °C 1009.0 in /  34164.7 hPa West 1.6 mph /  2.6 km/h 3.2 mph /  5.1 km/h 95 % 0.0 in /  0 mm
23:42 4.4 °F /  -15.3 °C 3.5 °F /  -15.8 °C 1009.0 in /  34164.7 hPa WSW 1.6 mph /  2.6 km/h 4.8 mph /  7.7 km/h 94 % 0.0 in /  0 mm
23:52 4.4 °F /  -15.3 °C 3.5 °F /  -15.8 °C 1009.0 in /  34164.7 hPa West 1.6 mph /  2.6 km/h 3.2 mph /  5.1 km/h 94 % 0.0 in /  0 mm
23:57 4.3 °F /  -15.4 °C 3.4 °F /  -15.9 °C 1009.0 in /  34164.7 hPa WNW 3.2 mph /  5.1 km/h 4.8 mph /  7.7 km/h 94 % 0.0 in /  0 mm
Meteo18
Compliments of Weather Underground - 4 mb

Script developed by  Jim McMurry - jmcmurry@mwt.net Adapted for the template by  Wim van der Kuil - Leuven-Template.eu

You find our weather info also at:

European Weather Network

Weather Underground

Equipment we use:

Weather-station
Davis Vue

Weather-program
Meteobridge

Weather-server
Raspberry PI 2 B+

Provider
1 and 1

Davis Vue

Meteobridge

Raspberry PI 2 B+

1 and 1